sensor_id;sensor_type;location;lat;lon;timestamp;pressure;altitude;pressure_sealevel;temperature;humidity
31096;BME280;17749;51.962;8.560;2023-07-22T05:02:59;99888.97;;;13.06;100.00
31096;BME280;17749;51.962;8.560;2023-07-22T05:05:26;99892.19;;;13.13;100.00
31096;BME280;17749;51.962;8.560;2023-07-22T05:07:54;99899.19;;;13.15;100.00
31096;BME280;17749;51.962;8.560;2023-07-22T05:10:21;99895.19;;;13.23;100.00
31096;BME280;17749;51.962;8.560;2023-07-22T05:12:48;99898.53;;;13.28;100.00
31096;BME280;17749;51.962;8.560;2023-07-22T05:15:15;99897.41;;;13.32;100.00
31096;BME280;17749;51.962;8.560;2023-07-22T05:17:44;99883.25;;;13.30;100.00
31096;BME280;17749;51.962;8.560;2023-07-22T05:20:11;99891.72;;;13.38;100.00
31096;BME280;17749;51.962;8.560;2023-07-22T05:22:40;99890.63;;;13.42;100.00
31096;BME280;17749;51.962;8.560;2023-07-22T05:25:07;99889.50;;;13.46;100.00
31096;BME280;17749;51.962;8.560;2023-07-22T05:27:35;99886.50;;;13.52;100.00
31096;BME280;17749;51.962;8.560;2023-07-22T05:30:02;99901.84;;;13.65;100.00
31096;BME280;17749;51.962;8.560;2023-07-22T05:32:32;99897.88;;;13.72;100.00
31096;BME280;17749;51.962;8.560;2023-07-22T05:35:00;99886.81;;;13.78;100.00
31096;BME280;17749;51.962;8.560;2023-07-22T05:37:28;99898.03;;;13.85;100.00
31096;BME280;17749;51.962;8.560;2023-07-22T05:39:55;99904.84;;;13.90;100.00
31096;BME280;17749;51.962;8.560;2023-07-22T05:42:23;99896.81;;;13.90;100.00
31096;BME280;17749;51.962;8.560;2023-07-22T05:44:50;99903.94;;;13.91;100.00
31096;BME280;17749;51.962;8.560;2023-07-22T05:47:17;99904.34;;;13.99;100.00
31096;BME280;17749;51.962;8.560;2023-07-22T05:49:45;99896.31;;;13.99;100.00
31096;BME280;17749;51.962;8.560;2023-07-22T05:52:12;99895.78;;;14.09;100.00
31096;BME280;17749;51.962;8.560;2023-07-22T05:54:38;99894.66;;;14.13;100.00
31096;BME280;17749;51.962;8.560;2023-07-22T05:57:06;99892.28;;;14.22;100.00
31096;BME280;17749;51.962;8.560;2023-07-22T05:59:33;99893.47;;;14.33;100.00
31096;BME280;17749;51.962;8.560;2023-07-22T06:02:07;99902.97;;;14.38;100.00
31096;BME280;17749;51.962;8.560;2023-07-22T06:04:34;99902.09;;;14.38;100.00
31096;BME280;17749;51.962;8.560;2023-07-22T06:07:02;99895.50;;;14.43;100.00
31096;BME280;17749;51.962;8.560;2023-07-22T06:09:29;99893.97;;;14.55;100.00
31096;BME280;17749;51.962;8.560;2023-07-22T06:11:56;99892.06;;;14.57;100.00
31096;BME280;17749;51.962;8.560;2023-07-22T06:14:31;99902.31;;;14.65;100.00
31096;BME280;17749;51.962;8.560;2023-07-22T06:19:55;99900.31;;;14.68;100.00
31096;BME280;17749;51.962;8.560;2023-07-22T06:22:25;99885.94;;;14.69;100.00
31096;BME280;17749;51.962;8.560;2023-07-22T06:24:53;99892.31;;;14.83;100.00
31096;BME280;17749;51.962;8.560;2023-07-22T06:27:24;99898.72;;;15.09;100.00
31096;BME280;17749;51.962;8.560;2023-07-22T06:29:58;99895.28;;;15.36;100.00
31096;BME280;17749;51.962;8.560;2023-07-22T06:32:30;99895.06;;;15.67;100.00
31096;BME280;17749;51.962;8.560;2023-07-22T06:35:00;99899.91;;;15.89;100.00
31096;BME280;17749;51.962;8.560;2023-07-22T06:37:31;99885.56;;;16.03;100.00
31096;BME280;17749;51.962;8.560;2023-07-22T06:39:58;99901.75;;;15.89;100.00
31096;BME280;17749;51.962;8.560;2023-07-22T06:42:30;99905.06;;;15.92;100.00
31096;BME280;17749;51.962;8.560;2023-07-22T06:45:10;99900.19;;;15.99;100.00
31096;BME280;17749;51.962;8.560;2023-07-22T06:47:37;99900.63;;;16.06;100.00
31096;BME280;17749;51.962;8.560;2023-07-22T06:50:08;99882.78;;;16.05;100.00
31096;BME280;17749;51.962;8.560;2023-07-22T06:52:36;99882.38;;;16.11;100.00
31096;BME280;17749;51.962;8.560;2023-07-22T06:55:09;99885.66;;;16.29;100.00
31096;BME280;17749;51.962;8.560;2023-07-22T06:57:38;99888.47;;;16.40;100.00
31096;BME280;17749;51.962;8.560;2023-07-22T07:00:18;99882.38;;;16.63;100.00
31096;BME280;17749;51.962;8.560;2023-07-22T07:06:28;99891.75;;;17.47;100.00
31096;BME280;17749;51.962;8.560;2023-07-22T07:08:59;99892.56;;;17.86;100.00
31096;BME280;17749;51.962;8.560;2023-07-22T07:11:28;99888.56;;;18.16;100.00
31096;BME280;17749;51.962;8.560;2023-07-22T07:13:56;99889.59;;;18.26;100.00
31096;BME280;17749;51.962;8.560;2023-07-22T07:16:28;99896.94;;;18.59;100.00
31096;BME280;17749;51.962;8.560;2023-07-22T07:18:56;99898.28;;;18.89;100.00
31096;BME280;17749;51.962;8.560;2023-07-22T07:21:22;99893.75;;;19.01;100.00
31096;BME280;17749;51.962;8.560;2023-07-22T07:23:51;99896.94;;;19.17;100.00
31096;BME280;17749;51.962;8.560;2023-07-22T07:26:19;99886.66;;;19.11;100.00
31096;BME280;17749;51.962;8.560;2023-07-22T07:28:47;99892.69;;;19.37;100.00
31096;BME280;17749;51.962;8.560;2023-07-22T07:31:15;99888.13;;;19.38;100.00
31096;BME280;17749;51.962;8.560;2023-07-22T07:33:42;99892.06;;;19.34;100.00
31096;BME280;17749;51.962;8.560;2023-07-22T07:36:09;99895.75;;;19.10;100.00
31096;BME280;17749;51.962;8.560;2023-07-22T07:38:36;99896.94;;;18.95;100.00
31096;BME280;17749;51.962;8.560;2023-07-22T07:41:05;99896.09;;;18.94;100.00
31096;BME280;17749;51.962;8.560;2023-07-22T07:43:35;99894.66;;;19.13;100.00
31096;BME280;17749;51.962;8.560;2023-07-22T07:46:33;99885.91;;;19.43;100.00
31096;BME280;17749;51.962;8.560;2023-07-22T07:49:01;99888.25;;;19.81;100.00
31096;BME280;17749;51.962;8.560;2023-07-22T07:51:30;99880.28;;;20.12;100.00
31096;BME280;17749;51.962;8.560;2023-07-22T07:53:58;99879.16;;;20.26;100.00
31096;BME280;17749;51.962;8.560;2023-07-22T07:56:26;99885.19;;;20.50;100.00
31096;BME280;17749;51.962;8.560;2023-07-22T07:58:54;99890.06;;;20.68;100.00
31096;BME280;17749;51.962;8.560;2023-07-22T08:01:21;99883.63;;;20.69;100.00
31096;BME280;17749;51.962;8.560;2023-07-22T08:03:49;99885.41;;;21.00;100.00
31096;BME280;17749;51.962;8.560;2023-07-22T08:06:16;99883.97;;;20.96;100.00
31096;BME280;17749;51.962;8.560;2023-07-22T08:08:46;99875.66;;;20.35;100.00
31096;BME280;17749;51.962;8.560;2023-07-22T08:11:14;99881.22;;;20.22;100.00
31096;BME280;17749;51.962;8.560;2023-07-22T08:13:43;99884.09;;;20.21;100.00
31096;BME280;17749;51.962;8.560;2023-07-22T08:16:12;99890.34;;;20.21;100.00
31096;BME280;17749;51.962;8.560;2023-07-22T08:18:40;99887.47;;;20.34;100.00
31096;BME280;17749;51.962;8.560;2023-07-22T08:21:07;99893.28;;;20.50;100.00
31096;BME280;17749;51.962;8.560;2023-07-22T08:23:35;99900.69;;;20.60;100.00
31096;BME280;17749;51.962;8.560;2023-07-22T08:26:04;99894.94;;;20.74;100.00
31096;BME280;17749;51.962;8.560;2023-07-22T08:28:34;99893.41;;;20.28;100.00
31096;BME280;17749;51.962;8.560;2023-07-22T08:31:01;99891.50;;;20.07;100.00
31096;BME280;17749;51.962;8.560;2023-07-22T08:33:29;99907.03;;;19.94;100.00
31096;BME280;17749;51.962;8.560;2023-07-22T08:36:08;99898.63;;;20.08;100.00
31096;BME280;17749;51.962;8.560;2023-07-22T08:38:36;99899.56;;;20.19;100.00
31096;BME280;17749;51.962;8.560;2023-07-22T08:41:03;99896.78;;;20.41;100.00
31096;BME280;17749;51.962;8.560;2023-07-22T08:43:30;99894.72;;;20.66;100.00
31096;BME280;17749;51.962;8.560;2023-07-22T08:46:01;99896.13;;;20.81;100.00
31096;BME280;17749;51.962;8.560;2023-07-22T08:48:34;99893.59;;;20.89;100.00
31096;BME280;17749;51.962;8.560;2023-07-22T08:51:06;99897.63;;;20.95;100.00
31096;BME280;17749;51.962;8.560;2023-07-22T08:53:36;99896.34;;;21.20;100.00
31096;BME280;17749;51.962;8.560;2023-07-22T08:56:04;99892.31;;;21.35;100.00
31096;BME280;17749;51.962;8.560;2023-07-22T08:58:31;99899.13;;;21.60;100.00
31096;BME280;17749;51.962;8.560;2023-07-22T09:00:59;99892.03;;;21.79;100.00
31096;BME280;17749;51.962;8.560;2023-07-22T09:03:27;99888.22;;;21.20;100.00
31096;BME280;17749;51.962;8.560;2023-07-22T09:05:55;99892.59;;;21.11;100.00
31096;BME280;17749;51.962;8.560;2023-07-22T09:08:22;99890.94;;;21.20;100.00
31096;BME280;17749;51.962;8.560;2023-07-22T09:10:49;99886.69;;;21.27;100.00
31096;BME280;17749;51.962;8.560;2023-07-22T09:13:18;99881.22;;;21.38;100.00
31096;BME280;17749;51.962;8.560;2023-07-22T09:15:47;99884.31;;;21.74;100.00
31096;BME280;17749;51.962;8.560;2023-07-22T09:18:17;99882.38;;;22.05;100.00
31096;BME280;17749;51.962;8.560;2023-07-22T09:20:44;99892.47;;;21.84;100.00
31096;BME280;17749;51.962;8.560;2023-07-22T09:23:11;99888.78;;;21.95;100.00
31096;BME280;17749;51.962;8.560;2023-07-22T09:25:41;99879.25;;;22.10;100.00
31096;BME280;17749;51.962;8.560;2023-07-22T09:28:08;99889.38;;;21.98;100.00
31096;BME280;17749;51.962;8.560;2023-07-22T09:30:38;99890.53;;;21.55;100.00
31096;BME280;17749;51.962;8.560;2023-07-22T09:33:21;99892.84;;;21.60;100.00
31096;BME280;17749;51.962;8.560;2023-07-22T09:35:51;99887.16;;;21.63;100.00
31096;BME280;17749;51.962;8.560;2023-07-22T09:38:23;99877.91;;;21.75;100.00
31096;BME280;17749;51.962;8.560;2023-07-22T09:40:51;99883.78;;;21.90;100.00
31096;BME280;17749;51.962;8.560;2023-07-22T09:43:18;99882.97;;;22.09;100.00
31096;BME280;17749;51.962;8.560;2023-07-22T09:45:49;99887.59;;;22.28;100.00
31096;BME280;17749;51.962;8.560;2023-07-22T09:48:16;99878.16;;;22.42;100.00
31096;BME280;17749;51.962;8.560;2023-07-22T09:50:44;99878.16;;;22.42;100.00
31096;BME280;17749;51.962;8.560;2023-07-22T09:53:15;99872.44;;;22.64;100.00
31096;BME280;17749;51.962;8.560;2023-07-22T09:55:43;99869.59;;;22.56;100.00
31096;BME280;17749;51.962;8.560;2023-07-22T09:58:11;99865.31;;;22.44;100.00
31096;BME280;17749;51.962;8.560;2023-07-22T10:00:47;99869.31;;;22.40;100.00
31096;BME280;17749;51.962;8.560;2023-07-22T10:03:16;99865.47;;;22.33;100.00
31096;BME280;17749;51.962;8.560;2023-07-22T10:05:48;99862.03;;;22.30;100.00
31096;BME280;17749;51.962;8.560;2023-07-22T10:08:18;99857.03;;;22.26;100.00
31096;BME280;17749;51.962;8.560;2023-07-22T10:10:46;99859.31;;;22.30;100.00
31096;BME280;17749;51.962;8.560;2023-07-22T10:13:13;99858.19;;;22.33;100.00
31096;BME280;17749;51.962;8.560;2023-07-22T10:15:40;99845.91;;;22.48;100.00
31096;BME280;17749;51.962;8.560;2023-07-22T10:18:09;99841.88;;;22.72;100.00
31096;BME280;17749;51.962;8.560;2023-07-22T10:20:37;99846.88;;;22.57;100.00
31096;BME280;17749;51.962;8.560;2023-07-22T10:23:06;99846.44;;;22.62;100.00
31096;BME280;17749;51.962;8.560;2023-07-22T10:25:35;99843.63;;;22.44;100.00
31096;BME280;17749;51.962;8.560;2023-07-22T10:28:03;99843.91;;;22.31;100.00
31096;BME280;17749;51.962;8.560;2023-07-22T10:30:32;99847.03;;;22.26;100.00
31096;BME280;17749;51.962;8.560;2023-07-22T10:33:01;99839.59;;;22.09;100.00
31096;BME280;17749;51.962;8.560;2023-07-22T10:38:15;99836.78;;;22.20;100.00
31096;BME280;17749;51.962;8.560;2023-07-22T10:40:54;99843.88;;;22.21;100.00
31096;BME280;17749;51.962;8.560;2023-07-22T10:43:30;99832.78;;;22.24;100.00
31096;BME280;17749;51.962;8.560;2023-07-22T10:46:11;99835.34;;;22.36;100.00
31096;BME280;17749;51.962;8.560;2023-07-22T10:48:40;99821.06;;;22.43;100.00
31096;BME280;17749;51.962;8.560;2023-07-22T10:51:13;99827.03;;;22.47;100.00
31096;BME280;17749;51.962;8.560;2023-07-22T10:53:46;99831.34;;;22.20;100.00
31096;BME280;17749;51.962;8.560;2023-07-22T10:56:16;99819.34;;;22.33;100.00
31096;BME280;17749;51.962;8.560;2023-07-22T11:04:25;99809.50;;;22.41;100.00
31096;BME280;17749;51.962;8.560;2023-07-22T11:07:30;99810.03;;;22.45;100.00
31096;BME280;17749;51.962;8.560;2023-07-22T11:09:57;99805.47;;;22.55;100.00
31096;BME280;17749;51.962;8.560;2023-07-22T11:12:24;99803.47;;;22.57;100.00
31096;BME280;17749;51.962;8.560;2023-07-22T11:14:53;99806.22;;;22.38;100.00
31096;BME280;17749;51.962;8.560;2023-07-22T11:17:29;99801.34;;;22.31;100.00
31096;BME280;17749;51.962;8.560;2023-07-22T11:19:58;99796.94;;;22.30;100.00
31096;BME280;17749;51.962;8.560;2023-07-22T11:22:26;99799.94;;;22.27;100.00
31096;BME280;17749;51.962;8.560;2023-07-22T11:24:55;99796.50;;;22.25;100.00
31096;BME280;17749;51.962;8.560;2023-07-22T11:27:25;99795.63;;;22.05;99.58
31096;BME280;17749;51.962;8.560;2023-07-22T11:29:52;99794.75;;;21.95;99.87
31096;BME280;17749;51.962;8.560;2023-07-22T11:32:20;99802.13;;;21.64;97.49
31096;BME280;17749;51.962;8.560;2023-07-22T11:34:52;99800.72;;;21.60;100.00
31096;BME280;17749;51.962;8.560;2023-07-22T11:37:22;99789.75;;;21.61;98.87
31096;BME280;17749;51.962;8.560;2023-07-22T11:39:49;99791.91;;;21.77;99.12
31096;BME280;17749;51.962;8.560;2023-07-22T11:42:17;99787.06;;;22.00;98.23
31096;BME280;17749;51.962;8.560;2023-07-22T11:44:47;99785.66;;;22.25;98.48
31096;BME280;17749;51.962;8.560;2023-07-22T11:47:14;99784.78;;;22.35;97.40
31096;BME280;17749;51.962;8.560;2023-07-22T11:49:41;99781.88;;;22.56;97.14
31096;BME280;17749;51.962;8.560;2023-07-22T11:52:17;99788.00;;;22.67;96.83
31096;BME280;17749;51.962;8.560;2023-07-22T11:54:46;99789.03;;;22.66;95.78
31096;BME280;17749;51.962;8.560;2023-07-22T11:57:18;99787.19;;;22.57;95.86
31096;BME280;17749;51.962;8.560;2023-07-22T11:59:46;99788.44;;;22.63;95.16
31096;BME280;17749;51.962;8.560;2023-07-22T12:02:14;99785.91;;;22.61;91.67
31096;BME280;17749;51.962;8.560;2023-07-22T12:07:41;99773.81;;;23.21;94.71
31096;BME280;17749;51.962;8.560;2023-07-22T12:10:08;99778.06;;;23.33;93.10
31096;BME280;17749;51.962;8.560;2023-07-22T12:12:40;99773.66;;;23.32;90.23
31096;BME280;17749;51.962;8.560;2023-07-22T12:15:18;99772.78;;;23.31;88.32
31096;BME280;17749;51.962;8.560;2023-07-22T12:20:29;99770.88;;;23.59;89.06
31096;BME280;17749;51.962;8.560;2023-07-22T12:22:58;99759.38;;;23.66;86.13
31096;BME280;17749;51.962;8.560;2023-07-22T12:25:26;99766.25;;;23.70;88.46
31096;BME280;17749;51.962;8.560;2023-07-22T12:27:53;99761.63;;;23.80;86.27
31096;BME280;17749;51.962;8.560;2023-07-22T12:30:21;99749.34;;;23.76;86.90
31096;BME280;17749;51.962;8.560;2023-07-22T12:32:48;99760.59;;;23.81;85.34
31096;BME280;17749;51.962;8.560;2023-07-22T12:35:15;99759.94;;;23.79;83.33
31096;BME280;17749;51.962;8.560;2023-07-22T12:37:43;99755.13;;;23.63;83.15
31096;BME280;17749;51.962;8.560;2023-07-22T12:40:10;99755.69;;;23.67;82.98
31096;BME280;17749;51.962;8.560;2023-07-22T12:42:40;99756.44;;;23.59;82.00
31096;BME280;17749;51.962;8.560;2023-07-22T12:45:08;99750.56;;;23.63;81.56
31096;BME280;17749;51.962;8.560;2023-07-22T12:47:35;99749.53;;;23.65;80.39
31096;BME280;17749;51.962;8.560;2023-07-22T12:50:04;99757.84;;;23.45;81.07
31096;BME280;17749;51.962;8.560;2023-07-22T12:52:31;99755.09;;;23.27;80.82
31096;BME280;17749;51.962;8.560;2023-07-22T12:54:58;99743.59;;;23.33;83.54
31096;BME280;17749;51.962;8.560;2023-07-22T12:57:25;99740.53;;;23.18;79.57
31096;BME280;17749;51.962;8.560;2023-07-22T12:59:52;99738.50;;;23.21;81.25
31096;BME280;17749;51.962;8.560;2023-07-22T13:02:19;99750.53;;;23.18;81.88
31096;BME280;17749;51.962;8.560;2023-07-22T13:04:46;99745.88;;;23.10;80.97
31096;BME280;17749;51.962;8.560;2023-07-22T13:07:13;99751.50;;;23.27;81.99
31096;BME280;17749;51.962;8.560;2023-07-22T13:09:47;99738.97;;;23.44;80.40
31096;BME280;17749;51.962;8.560;2023-07-22T13:12:16;99728.63;;;23.47;81.76
31096;BME280;17749;51.962;8.560;2023-07-22T13:14:45;99721.47;;;23.74;82.23
31096;BME280;17749;51.962;8.560;2023-07-22T13:17:12;99723.88;;;23.77;79.72
31096;BME280;17749;51.962;8.560;2023-07-22T13:19:39;99717.81;;;23.83;82.48
31096;BME280;17749;51.962;8.560;2023-07-22T13:22:06;99719.03;;;24.06;82.73
31096;BME280;17749;51.962;8.560;2023-07-22T13:24:34;99729.47;;;24.37;82.66
31096;BME280;17749;51.962;8.560;2023-07-22T13:27:01;99725.41;;;24.41;78.11
31096;BME280;17749;51.962;8.560;2023-07-22T13:29:28;99732.31;;;24.54;76.67
31096;BME280;17749;51.962;8.560;2023-07-22T13:31:57;99733.56;;;24.41;75.72
31096;BME280;17749;51.962;8.560;2023-07-22T13:34:28;99714.13;;;24.36;76.82
31096;BME280;17749;51.962;8.560;2023-07-22T13:36:55;99717.03;;;24.35;76.89
31096;BME280;17749;51.962;8.560;2023-07-22T13:39:22;99706.16;;;24.35;79.16
31096;BME280;17749;51.962;8.560;2023-07-22T13:41:49;99710.41;;;24.37;78.82
31096;BME280;17749;51.962;8.560;2023-07-22T13:44:16;99712.38;;;24.45;77.84
31096;BME280;17749;51.962;8.560;2023-07-22T13:46:44;99701.06;;;24.58;77.28
31096;BME280;17749;51.962;8.560;2023-07-22T13:49:11;99705.44;;;24.51;76.18
31096;BME280;17749;51.962;8.560;2023-07-22T13:51:38;99702.00;;;24.48;76.42
31096;BME280;17749;51.962;8.560;2023-07-22T13:54:05;99699.53;;;24.37;75.79
31096;BME280;17749;51.962;8.560;2023-07-22T13:56:32;99693.38;;;24.35;75.00
31096;BME280;17749;51.962;8.560;2023-07-22T13:59:00;99699.28;;;24.48;77.45
31096;BME280;17749;51.962;8.560;2023-07-22T14:01:27;99693.88;;;24.57;75.96
31096;BME280;17749;51.962;8.560;2023-07-22T14:03:55;99696.13;;;24.61;76.69
31096;BME280;17749;51.962;8.560;2023-07-22T14:06:22;99689.50;;;24.64;74.74
31096;BME280;17749;51.962;8.560;2023-07-22T14:08:49;99685.94;;;24.63;75.27
31096;BME280;17749;51.962;8.560;2023-07-22T14:11:16;99683.53;;;24.60;75.20
31096;BME280;17749;51.962;8.560;2023-07-22T14:13:44;99687.81;;;24.63;75.57
31096;BME280;17749;51.962;8.560;2023-07-22T14:16:11;99691.97;;;24.83;75.21
31096;BME280;17749;51.962;8.560;2023-07-22T14:18:49;99693.72;;;24.92;74.09
31096;BME280;17749;51.962;8.560;2023-07-22T14:21:16;99692.00;;;24.91;71.84
31096;BME280;17749;51.962;8.560;2023-07-22T14:23:43;99682.72;;;24.68;71.42
31096;BME280;17749;51.962;8.560;2023-07-22T14:26:11;99679.91;;;24.52;73.02
31096;BME280;17749;51.962;8.560;2023-07-22T14:28:38;99681.66;;;24.61;75.70
31096;BME280;17749;51.962;8.560;2023-07-22T14:31:05;99673.13;;;24.56;71.89
31096;BME280;17749;51.962;8.560;2023-07-22T14:33:32;99674.38;;;24.69;75.65
31096;BME280;17749;51.962;8.560;2023-07-22T14:35:59;99665.13;;;24.97;74.34
31096;BME280;17749;51.962;8.560;2023-07-22T14:38:26;99669.13;;;25.10;73.95
31096;BME280;17749;51.962;8.560;2023-07-22T14:40:53;99670.28;;;25.00;71.08
31096;BME280;17749;51.962;8.560;2023-07-22T14:43:20;99662.84;;;24.76;68.79
31096;BME280;17749;51.962;8.560;2023-07-22T14:45:48;99672.31;;;24.63;71.40
31096;BME280;17749;51.962;8.560;2023-07-22T14:48:16;99669.56;;;24.55;70.44
31096;BME280;17749;51.962;8.560;2023-07-22T14:50:43;99663.69;;;24.42;71.12
31096;BME280;17749;51.962;8.560;2023-07-22T14:53:10;99666.28;;;24.52;71.62
31096;BME280;17749;51.962;8.560;2023-07-22T14:55:37;99662.25;;;24.30;67.90
31096;BME280;17749;51.962;8.560;2023-07-22T14:58:04;99659.84;;;24.26;71.42
31096;BME280;17749;51.962;8.560;2023-07-22T15:00:32;99658.97;;;24.26;69.87
31096;BME280;17749;51.962;8.560;2023-07-22T15:02:59;99653.22;;;24.29;69.68
31096;BME280;17749;51.962;8.560;2023-07-22T15:05:26;99652.81;;;24.16;67.69
31096;BME280;17749;51.962;8.560;2023-07-22T15:07:53;99653.44;;;24.10;71.67
31096;BME280;17749;51.962;8.560;2023-07-22T15:10:20;99647.22;;;23.99;69.56
31096;BME280;17749;51.962;8.560;2023-07-22T15:12:48;99636.25;;;23.83;68.32
31096;BME280;17749;51.962;8.560;2023-07-22T15:15:17;99648.13;;;23.82;70.73
31096;BME280;17749;51.962;8.560;2023-07-22T15:17:44;99653.50;;;23.74;70.53
31096;BME280;17749;51.962;8.560;2023-07-22T15:20:12;99648.94;;;23.74;70.32
31096;BME280;17749;51.962;8.560;2023-07-22T15:22:39;99649.44;;;23.78;69.64
31096;BME280;17749;51.962;8.560;2023-07-22T15:25:07;99647.97;;;23.83;71.99
31096;BME280;17749;51.962;8.560;2023-07-22T15:27:33;99639.81;;;23.83;71.51
31096;BME280;17749;51.962;8.560;2023-07-22T15:30:00;99641.41;;;23.94;71.59
31096;BME280;17749;51.962;8.560;2023-07-22T15:32:27;99638.41;;;23.97;71.69
31096;BME280;17749;51.962;8.560;2023-07-22T15:34:54;99644.88;;;24.04;72.34
31096;BME280;17749;51.962;8.560;2023-07-22T15:37:21;99642.28;;;23.95;70.39
31096;BME280;17749;51.962;8.560;2023-07-22T15:39:48;99637.31;;;23.90;69.63
31096;BME280;17749;51.962;8.560;2023-07-22T15:42:16;99624.91;;;23.88;69.49
31096;BME280;17749;51.962;8.560;2023-07-22T15:44:43;99632.72;;;23.91;71.25
31096;BME280;17749;51.962;8.560;2023-07-22T15:47:10;99626.81;;;23.95;70.93
31096;BME280;17749;51.962;8.560;2023-07-22T15:49:37;99621.34;;;23.87;70.00
31096;BME280;17749;51.962;8.560;2023-07-22T15:52:04;99623.88;;;23.89;71.73
31096;BME280;17749;51.962;8.560;2023-07-22T15:54:31;99613.59;;;24.00;72.15
31096;BME280;17749;51.962;8.560;2023-07-22T15:56:58;99615.69;;;24.06;72.72
31096;BME280;17749;51.962;8.560;2023-07-22T15:59:25;99614.66;;;24.08;70.73
31096;BME280;17749;51.962;8.560;2023-07-22T16:01:53;99617.00;;;24.02;70.90
31096;BME280;17749;51.962;8.560;2023-07-22T16:04:20;99618.00;;;24.01;71.40
31096;BME280;17749;51.962;8.560;2023-07-22T16:06:47;99607.63;;;23.97;71.74
31096;BME280;17749;51.962;8.560;2023-07-22T16:09:14;99612.69;;;23.92;70.29
31096;BME280;17749;51.962;8.560;2023-07-22T16:11:42;99614.50;;;23.83;70.38
31096;BME280;17749;51.962;8.560;2023-07-22T16:14:09;99607.50;;;23.80;70.59
31096;BME280;17749;51.962;8.560;2023-07-22T16:16:36;99605.41;;;23.92;71.22
31096;BME280;17749;51.962;8.560;2023-07-22T16:19:04;99602.53;;;24.02;69.74
31096;BME280;17749;51.962;8.560;2023-07-22T16:21:32;99611.41;;;24.04;70.16
31096;BME280;17749;51.962;8.560;2023-07-22T16:23:59;99605.22;;;23.94;68.80
31096;BME280;17749;51.962;8.560;2023-07-22T16:26:26;99605.50;;;23.82;69.08
31096;BME280;17749;51.962;8.560;2023-07-22T16:28:54;99600.38;;;23.79;70.60
31096;BME280;17749;51.962;8.560;2023-07-22T16:31:21;99603.41;;;23.76;70.37
31096;BME280;17749;51.962;8.560;2023-07-22T16:33:48;99603.88;;;23.72;71.55
31096;BME280;17749;51.962;8.560;2023-07-22T16:36:15;99598.63;;;23.60;69.90
31096;BME280;17749;51.962;8.560;2023-07-22T16:38:42;99609.06;;;23.47;70.21
31096;BME280;17749;51.962;8.560;2023-07-22T16:41:09;99598.38;;;23.28;70.44
31096;BME280;17749;51.962;8.560;2023-07-22T16:43:36;99601.78;;;23.30;71.65
31096;BME280;17749;51.962;8.560;2023-07-22T16:46:03;99596.13;;;23.23;71.77
31096;BME280;17749;51.962;8.560;2023-07-22T16:48:30;99598.31;;;23.19;72.57
31096;BME280;17749;51.962;8.560;2023-07-22T16:50:57;99594.03;;;23.17;72.86
31096;BME280;17749;51.962;8.560;2023-07-22T16:53:24;99589.22;;;23.11;73.12
31096;BME280;17749;51.962;8.560;2023-07-22T16:55:51;99604.25;;;23.05;74.76
31096;BME280;17749;51.962;8.560;2023-07-22T16:58:18;99601.13;;;23.00;74.75
31096;BME280;17749;51.962;8.560;2023-07-22T17:00:45;99596.63;;;22.91;74.55
31096;BME280;17749;51.962;8.560;2023-07-22T17:03:15;99596.44;;;22.74;75.03
31096;BME280;17749;51.962;8.560;2023-07-22T17:05:43;99591.91;;;22.65;75.37
31096;BME280;17749;51.962;8.560;2023-07-22T17:08:10;99590.75;;;22.68;76.76
31096;BME280;17749;51.962;8.560;2023-07-22T17:10:37;99594.72;;;22.73;77.68
31096;BME280;17749;51.962;8.560;2023-07-22T17:13:04;99591.00;;;22.74;78.23
31096;BME280;17749;51.962;8.560;2023-07-22T17:15:31;99591.00;;;22.74;78.16
31096;BME280;17749;51.962;8.560;2023-07-22T17:17:58;99591.00;;;22.74;78.54
31096;BME280;17749;51.962;8.560;2023-07-22T17:20:25;99585.19;;;22.69;77.84
31096;BME280;17749;51.962;8.560;2023-07-22T17:22:53;99590.22;;;22.64;77.61
31096;BME280;17749;51.962;8.560;2023-07-22T17:25:20;99594.22;;;22.60;77.46
31096;BME280;17749;51.962;8.560;2023-07-22T17:27:48;99600.09;;;22.56;79.53
31096;BME280;17749;51.962;8.560;2023-07-22T17:30:15;99601.72;;;22.48;79.38
31096;BME280;17749;51.962;8.560;2023-07-22T17:32:43;99601.44;;;22.42;78.76
31096;BME280;17749;51.962;8.560;2023-07-22T17:35:13;99602.47;;;22.41;79.30
31096;BME280;17749;51.962;8.560;2023-07-22T17:37:40;99594.78;;;22.36;79.92
31096;BME280;17749;51.962;8.560;2023-07-22T17:40:07;99588.94;;;22.31;79.29
31096;BME280;17749;51.962;8.560;2023-07-22T17:42:34;99588.41;;;22.27;80.21
31096;BME280;17749;51.962;8.560;2023-07-22T17:45:02;99580.25;;;22.18;80.47
31096;BME280;17749;51.962;8.560;2023-07-22T17:47:28;99577.28;;;22.11;80.13
31096;BME280;17749;51.962;8.560;2023-07-22T17:49:55;99578.19;;;22.02;79.44
31096;BME280;17749;51.962;8.560;2023-07-22T17:52:23;99579.03;;;21.93;80.24
31096;BME280;17749;51.962;8.560;2023-07-22T17:54:51;99579.03;;;21.93;81.83
31096;BME280;17749;51.962;8.560;2023-07-22T17:57:18;99581.75;;;21.93;82.74
31096;BME280;17749;51.962;8.560;2023-07-22T17:59:45;99578.06;;;21.94;83.36
31096;BME280;17749;51.962;8.560;2023-07-22T18:02:16;99574.19;;;21.96;84.17
31096;BME280;17749;51.962;8.560;2023-07-22T18:04:43;99572.03;;;22.00;85.25
31096;BME280;17749;51.962;8.560;2023-07-22T18:07:10;99580.16;;;22.00;85.30
31096;BME280;17749;51.962;8.560;2023-07-22T18:09:36;99572.75;;;22.02;86.47
31096;BME280;17749;51.962;8.560;2023-07-22T18:12:03;99569.91;;;22.03;87.05
31096;BME280;17749;51.962;8.560;2023-07-22T18:14:30;99571.06;;;22.01;87.45
31096;BME280;17749;51.962;8.560;2023-07-22T18:17:00;99575.47;;;22.02;88.30
31096;BME280;17749;51.962;8.560;2023-07-22T18:19:27;99568.78;;;21.96;88.01
31096;BME280;17749;51.962;8.560;2023-07-22T18:21:54;99574.50;;;21.93;90.00
31096;BME280;17749;51.962;8.560;2023-07-22T18:24:21;99573.38;;;21.86;89.61